createdAt,value
2023-04-07T00:00:11.115Z,76.13
2023-04-07T00:02:12.691Z,76.18
2023-04-07T00:04:14.439Z,76.69
2023-04-07T00:06:16.199Z,76.53
2023-04-07T00:08:17.738Z,76.80
2023-04-07T00:10:19.227Z,76.58
2023-04-07T00:12:20.688Z,76.31
2023-04-07T00:14:22.145Z,76.20
2023-04-07T00:16:24.322Z,76.54
2023-04-07T00:18:26.140Z,76.57
2023-04-07T00:20:27.640Z,77.14
2023-04-07T00:22:29.446Z,76.26
2023-04-07T00:24:34.437Z,76.72
2023-04-07T00:26:36.341Z,77.41
2023-04-07T00:28:37.943Z,76.76
2023-04-07T00:30:39.396Z,77.38
2023-04-07T00:32:40.978Z,77.60
2023-04-07T00:34:42.594Z,77.69
2023-04-07T00:36:44.050Z,77.67
2023-04-07T00:38:45.502Z,76.99
2023-04-07T00:40:47.023Z,76.84
2023-04-07T00:42:48.491Z,77.27
2023-04-07T00:44:49.934Z,77.22
2023-04-07T00:46:51.518Z,77.94
2023-04-07T00:48:53.128Z,78.07
2023-04-07T00:50:54.660Z,77.09
2023-04-07T00:52:57.128Z,77.65
2023-04-07T00:55:00.280Z,77.31
2023-04-07T00:57:01.782Z,77.82
2023-04-07T00:59:06.409Z,77.68
2023-04-07T01:01:13.656Z,77.92
2023-04-07T01:03:26.157Z,78.29
2023-04-07T01:05:54.664Z,78.39
2023-04-07T01:08:08.677Z,78.00
2023-04-07T01:10:17.369Z,77.83
2023-04-07T01:12:29.834Z,78.35
2023-04-07T01:14:37.053Z,78.27
2023-04-07T01:16:45.803Z,78.62
2023-04-07T01:18:51.053Z,78.53
2023-04-07T01:20:56.381Z,78.43
2023-04-07T01:23:04.073Z,78.91
2023-04-07T01:25:30.537Z,78.34
2023-04-07T01:27:57.617Z,78.30
2023-04-07T01:30:03.417Z,78.80
2023-04-07T01:32:08.224Z,79.17
2023-04-07T01:34:11.861Z,78.62
2023-04-07T01:36:15.893Z,78.41
2023-04-07T01:38:17.933Z,78.35
2023-04-07T01:40:21.371Z,79.38
2023-04-07T01:42:23.442Z,78.55
2023-04-07T01:44:26.158Z,78.88
2023-04-07T01:46:27.739Z,78.75
2023-04-07T01:48:29.214Z,78.31
2023-04-07T01:50:30.852Z,78.96
2023-04-07T01:52:36.417Z,78.62
2023-04-07T01:54:38.204Z,78.73
2023-04-07T01:56:39.660Z,78.24
2023-04-07T01:58:41.273Z,78.83
2023-04-07T02:00:43.478Z,78.70
2023-04-07T02:02:49.051Z,78.59
2023-04-07T02:05:00.200Z,78.45
2023-04-07T02:07:09.647Z,78.76
2023-04-07T02:09:15.432Z,78.19
2023-04-07T02:11:20.526Z,78.38
2023-04-07T02:13:23.320Z,79.10
2023-04-07T02:15:25.533Z,78.61
2023-04-07T02:17:29.312Z,78.31
2023-04-07T02:19:30.927Z,78.61
2023-04-07T02:21:34.393Z,78.65
2023-04-07T02:23:36.077Z,78.88
2023-04-07T02:25:40.564Z,78.64
2023-04-07T02:27:42.086Z,78.37
2023-04-07T02:29:43.550Z,78.25
2023-04-07T02:31:45.113Z,78.91
2023-04-07T02:33:46.600Z,78.93
2023-04-07T02:35:48.092Z,78.67
2023-04-07T02:37:50.609Z,78.68
2023-04-07T02:39:52.135Z,78.87
2023-04-07T02:41:53.637Z,79.33
2023-04-07T02:43:55.415Z,79.02
2023-04-07T02:45:57.141Z,78.90
2023-04-07T02:47:58.764Z,78.98
2023-04-07T02:50:00.342Z,79.16
2023-04-07T02:52:01.847Z,79.43
2023-04-07T02:54:03.322Z,79.23
2023-04-07T02:56:04.886Z,79.30
2023-04-07T02:58:06.392Z,79.32
2023-04-07T03:00:08.491Z,79.05
2023-04-07T03:02:10.248Z,79.36
2023-04-07T03:04:12.282Z,78.96
2023-04-07T03:06:14.472Z,78.96
2023-04-07T03:08:16.144Z,79.10
2023-04-07T03:10:17.639Z,79.30
2023-04-07T03:12:19.161Z,79.29
2023-04-07T03:14:20.634Z,79.27
2023-04-07T03:16:22.219Z,79.26
2023-04-07T03:18:23.830Z,79.23
2023-04-07T03:20:25.294Z,79.22
2023-04-07T03:22:26.807Z,79.27
2023-04-07T03:24:28.262Z,79.53
2023-04-07T03:26:29.759Z,79.10
2023-04-07T03:28:31.287Z,79.19
2023-04-07T03:30:32.805Z,79.15
2023-04-07T03:32:34.321Z,79.37
2023-04-07T03:34:35.971Z,78.92
2023-04-07T03:36:37.505Z,78.82
2023-04-07T03:38:38.988Z,79.06
2023-04-07T03:40:40.762Z,78.96
2023-04-07T03:42:42.985Z,79.00
2023-04-07T03:44:44.517Z,79.13
2023-04-07T03:46:47.120Z,79.29
2023-04-07T03:48:48.644Z,78.71
2023-04-07T03:50:50.134Z,79.19
2023-04-07T03:52:51.691Z,78.87
2023-04-07T03:54:53.148Z,78.89
2023-04-07T03:56:54.654Z,79.07
2023-04-07T03:58:56.227Z,79.33
2023-04-07T04:00:57.969Z,78.91
2023-04-07T04:03:00.702Z,78.84
2023-04-07T04:05:02.331Z,79.10
2023-04-07T04:07:03.804Z,79.17
2023-04-07T04:09:05.545Z,79.16
2023-04-07T04:11:07.007Z,79.22
2023-04-07T04:13:08.496Z,79.40
2023-04-07T04:15:10.797Z,79.08
2023-04-07T04:17:12.270Z,79.28
2023-04-07T04:19:13.745Z,79.21
2023-04-07T04:21:15.273Z,79.22
2023-04-07T04:23:16.727Z,79.25
2023-04-07T04:25:18.860Z,78.95
2023-04-07T04:27:20.468Z,79.22
2023-04-07T04:29:21.985Z,79.19
2023-04-07T04:31:23.475Z,79.28
2023-04-07T04:33:25.030Z,79.34
2023-04-07T04:35:27.220Z,79.49
2023-04-07T04:37:28.679Z,79.16
2023-04-07T04:39:30.137Z,79.21
2023-04-07T04:41:31.683Z,79.52
2023-04-07T04:43:33.200Z,79.13
2023-04-07T04:45:34.840Z,79.45
2023-04-07T04:47:38.978Z,78.98
2023-04-07T04:49:41.249Z,79.33
2023-04-07T04:51:42.731Z,78.99
2023-04-07T04:53:44.210Z,79.14
2023-04-07T04:55:48.171Z,79.03
2023-04-07T04:57:49.672Z,79.10
2023-04-07T04:59:51.528Z,79.07
2023-04-07T05:01:53.080Z,79.11
2023-04-07T05:03:55.114Z,78.92
2023-04-07T05:05:57.054Z,79.01
2023-04-07T05:07:58.548Z,78.81
2023-04-07T05:10:00.069Z,79.12
2023-04-07T05:12:02.563Z,78.78
2023-04-07T05:14:04.049Z,78.82
2023-04-07T05:16:06.615Z,78.58
2023-04-07T05:18:08.172Z,78.52
2023-04-07T05:20:10.925Z,78.55
2023-04-07T05:22:12.496Z,78.36
2023-04-07T05:24:14.007Z,78.25
2023-04-07T05:26:15.791Z,77.94
2023-04-07T05:28:17.372Z,77.56
2023-04-07T05:30:18.901Z,77.59
2023-04-07T05:32:20.357Z,77.57
2023-04-07T05:34:22.172Z,77.40
2023-04-07T05:36:23.852Z,77.34
2023-04-07T05:38:25.865Z,76.95
2023-04-07T05:40:27.354Z,76.91
2023-04-07T05:42:28.853Z,76.55
2023-04-07T05:44:30.340Z,76.38
2023-04-07T05:46:31.827Z,76.02
2023-04-07T05:48:33.372Z,75.37
2023-04-07T05:50:34.893Z,75.28
2023-04-07T05:52:36.354Z,75.44
2023-04-07T05:54:39.394Z,75.31
2023-04-07T05:56:40.916Z,75.05
2023-04-07T05:58:42.426Z,75.53
2023-04-07T06:00:43.965Z,75.46
2023-04-07T06:02:46.182Z,75.58
2023-04-07T06:04:47.728Z,75.36
2023-04-07T06:06:49.250Z,75.50
2023-04-07T06:08:50.855Z,75.25
2023-04-07T06:10:52.415Z,75.03
2023-04-07T06:12:53.887Z,75.06
2023-04-07T06:14:56.504Z,75.11
2023-04-07T06:16:58.132Z,74.88
2023-04-07T06:18:59.666Z,74.42
2023-04-07T06:21:01.337Z,74.96
2023-04-07T06:23:02.832Z,74.63
2023-04-07T06:25:04.687Z,74.79
2023-04-07T06:27:06.715Z,74.50
2023-04-07T06:29:08.267Z,74.04
2023-04-07T06:31:09.928Z,73.60
2023-04-07T06:33:11.424Z,73.81
2023-04-07T06:35:12.912Z,74.03
2023-04-07T06:37:16.897Z,73.54
2023-04-07T06:39:18.556Z,73.19
2023-04-07T06:41:20.232Z,73.27
2023-04-07T06:43:21.751Z,73.11
2023-04-07T06:45:23.498Z,74.24
2023-04-07T06:47:25.041Z,73.26
2023-04-07T06:49:26.553Z,73.36
2023-04-07T06:51:28.043Z,73.44
2023-04-07T06:53:29.519Z,73.25
2023-04-07T06:55:31.353Z,72.83
2023-04-07T06:57:32.992Z,73.03
2023-04-07T06:59:34.453Z,71.91
2023-04-07T07:01:37.682Z,72.34
2023-04-07T07:03:39.519Z,71.32
2023-04-07T07:05:41.067Z,72.31
2023-04-07T07:07:42.537Z,72.46
2023-04-07T07:09:43.995Z,71.98
2023-04-07T07:11:46.056Z,71.09
2023-04-07T07:13:48.090Z,70.63
2023-04-07T07:15:50.440Z,69.65
2023-04-07T07:17:51.977Z,69.32
2023-04-07T07:19:53.551Z,68.96
2023-04-07T07:21:55.763Z,68.29
2023-04-07T07:23:57.364Z,68.30
2023-04-07T07:25:58.870Z,70.91
2023-04-07T07:28:00.432Z,71.34
2023-04-07T07:30:01.980Z,69.79
2023-04-07T07:32:03.558Z,68.93
2023-04-07T07:34:05.063Z,68.08
2023-04-07T07:36:07.517Z,68.17
2023-04-07T07:38:09.041Z,67.91
2023-04-07T07:40:11.155Z,68.07
2023-04-07T07:42:12.823Z,68.50
2023-04-07T07:44:14.316Z,67.71
2023-04-07T07:46:15.911Z,68.29
2023-04-07T07:48:17.499Z,67.92
2023-04-07T07:50:18.976Z,68.89
2023-04-07T07:52:23.505Z,69.11
2023-04-07T07:54:25.380Z,68.29
2023-04-07T07:56:27.629Z,67.66
2023-04-07T07:58:29.090Z,67.25
2023-04-07T08:00:30.766Z,66.76
2023-04-07T08:02:33.979Z,66.49
2023-04-07T08:04:36.407Z,66.43
2023-04-07T08:06:38.128Z,66.63
2023-04-07T08:08:39.842Z,67.40
2023-04-07T08:10:41.427Z,66.99
2023-04-07T08:12:42.914Z,67.63
2023-04-07T08:14:44.717Z,67.20
2023-04-07T08:16:46.564Z,65.60
2023-04-07T08:18:48.459Z,64.74
2023-04-07T08:20:50.150Z,63.84
2023-04-07T08:22:51.625Z,65.41
2023-04-07T08:24:53.120Z,65.54
2023-04-07T08:26:54.649Z,62.63
2023-04-07T08:28:56.523Z,62.02
2023-04-07T08:30:57.968Z,64.24
2023-04-07T08:32:59.733Z,63.15
2023-04-07T08:35:01.391Z,62.82
2023-04-07T08:37:03.006Z,61.95
2023-04-07T08:39:05.685Z,61.54
2023-04-07T08:41:17.513Z,62.62
2023-04-07T08:43:20.234Z,61.76
2023-04-07T08:45:22.378Z,64.69
2023-04-07T08:47:26.508Z,63.18
2023-04-07T08:49:30.779Z,62.14
2023-04-07T08:51:33.210Z,60.49
2023-04-07T08:53:50.492Z,59.09
2023-04-07T08:55:52.819Z,60.74
2023-04-07T08:57:54.743Z,61.48
2023-04-07T08:59:57.795Z,61.11
2023-04-07T09:01:59.672Z,59.67
2023-04-07T09:04:03.663Z,57.62
2023-04-07T09:06:05.411Z,54.76
2023-04-07T09:08:06.911Z,57.97
2023-04-07T09:10:08.867Z,57.17
2023-04-07T09:12:11.353Z,57.43
2023-04-07T09:14:13.107Z,57.40
2023-04-07T09:16:14.695Z,55.90
2023-04-07T09:18:17.001Z,54.12
2023-04-07T09:20:18.504Z,54.37
2023-04-07T09:22:38.114Z,60.27
2023-04-07T09:24:40.520Z,61.62
2023-04-07T09:26:41.968Z,61.59
2023-04-07T09:28:48.325Z,61.73
2023-04-07T09:30:54.610Z,60.26
2023-04-07T09:32:56.782Z,59.99
2023-04-07T09:34:59.401Z,62.04
2023-04-07T09:37:02.090Z,58.95
2023-04-07T09:39:08.627Z,55.94
2023-04-07T09:41:15.296Z,53.23
2023-04-07T09:43:18.791Z,53.75
2023-04-07T09:45:34.751Z,54.22
2023-04-07T09:47:38.197Z,60.64
2023-04-07T09:49:53.970Z,59.91
2023-04-07T09:51:58.220Z,58.91
2023-04-07T09:53:59.792Z,54.67
2023-04-07T09:56:01.772Z,56.28
2023-04-07T09:58:04.675Z,58.52
2023-04-07T10:00:06.923Z,58.18
2023-04-07T10:02:09.303Z,54.89
2023-04-07T10:04:11.488Z,52.45
2023-04-07T10:06:13.712Z,56.46
2023-04-07T10:08:15.752Z,59.94
2023-04-07T10:10:17.610Z,58.73
2023-04-07T10:12:19.499Z,58.21
2023-04-07T10:14:23.356Z,57.08
2023-04-07T10:16:25.767Z,55.83
2023-04-07T10:18:31.774Z,58.97
2023-04-07T10:20:33.348Z,54.46
2023-04-07T10:22:37.029Z,50.60
2023-04-07T10:25:06.342Z,48.64
2023-04-07T10:27:12.670Z,50.90
2023-04-07T10:29:15.388Z,56.34
2023-04-07T10:31:21.348Z,57.14
2023-04-07T10:33:47.871Z,54.92
2023-04-07T10:36:07.046Z,58.88
2023-04-07T10:38:08.653Z,58.70
2023-04-07T10:40:19.611Z,57.82
2023-04-07T10:42:39.277Z,54.04
2023-04-07T10:44:40.738Z,56.84
2023-04-07T10:46:45.054Z,55.92
2023-04-07T10:49:10.158Z,53.23
2023-04-07T10:51:18.134Z,51.33
2023-04-07T10:53:22.590Z,51.42
2023-04-07T10:55:32.507Z,51.57
2023-04-07T10:57:34.276Z,54.11
2023-04-07T10:59:36.782Z,48.46
2023-04-07T11:01:38.344Z,50.94
2023-04-07T11:03:42.491Z,52.82
2023-04-07T11:05:44.092Z,48.46
2023-04-07T11:07:55.334Z,47.85
2023-04-07T11:10:10.983Z,51.14
2023-04-07T11:12:25.026Z,51.86
2023-04-07T11:14:31.716Z,42.86
2023-04-07T11:16:38.679Z,42.52
2023-04-07T11:18:41.881Z,47.38
2023-04-07T11:20:46.790Z,49.23
2023-04-07T11:23:00.666Z,46.27
2023-04-07T11:25:02.119Z,46.09
2023-04-07T11:27:04.066Z,47.66
2023-04-07T11:29:06.046Z,48.29
2023-04-07T11:31:08.531Z,46.14
2023-04-07T11:33:14.397Z,40.50
2023-04-07T11:35:16.699Z,41.87
2023-04-07T11:37:28.873Z,44.49
2023-04-07T11:39:31.291Z,46.77
2023-04-07T11:41:33.881Z,46.62
2023-04-07T11:43:36.591Z,45.10
2023-04-07T11:45:38.057Z,44.22
2023-04-07T11:47:40.747Z,43.14
2023-04-07T11:49:47.042Z,45.61
2023-04-07T11:51:48.574Z,46.32
2023-04-07T11:53:56.811Z,47.98
2023-04-07T11:56:09.830Z,47.51
2023-04-07T11:58:12.265Z,41.18
2023-04-07T12:00:15.846Z,40.54
2023-04-07T12:02:36.138Z,40.17
2023-04-07T12:04:40.263Z,35.79
2023-04-07T12:06:42.722Z,33.87
2023-04-07T12:08:44.715Z,33.42
2023-04-07T12:10:46.636Z,32.75
2023-04-07T12:12:49.197Z,34.69
2023-04-07T12:14:51.376Z,37.09
2023-04-07T12:16:56.241Z,38.22
2023-04-07T12:18:57.896Z,39.25
2023-04-07T12:20:59.510Z,37.97
2023-04-07T12:23:01.382Z,35.96
2023-04-07T12:25:02.891Z,42.06
2023-04-07T12:27:04.450Z,43.20
2023-04-07T12:29:06.929Z,42.97
2023-04-07T12:31:08.429Z,42.68
2023-04-07T12:33:09.892Z,38.64
2023-04-07T12:35:11.751Z,42.95
2023-04-07T12:37:13.373Z,44.38
2023-04-07T12:39:16.047Z,45.64
2023-04-07T12:41:17.509Z,41.84
2023-04-07T12:43:19.173Z,40.85
2023-04-07T12:45:21.202Z,40.27
2023-04-07T12:47:22.808Z,38.53
2023-04-07T12:49:24.297Z,35.06
2023-04-07T12:51:26.360Z,39.58
2023-04-07T12:53:27.899Z,42.92
2023-04-07T12:55:30.760Z,43.32
2023-04-07T12:57:32.822Z,44.52
2023-04-07T12:59:34.652Z,42.08
2023-04-07T13:01:37.265Z,44.68
2023-04-07T13:03:39.040Z,44.45
2023-04-07T13:05:40.649Z,43.10
2023-04-07T13:07:42.127Z,45.39
2023-04-07T13:09:43.659Z,47.30
2023-04-07T13:11:46.000Z,47.89
2023-04-07T13:13:47.743Z,47.70
2023-04-07T13:15:49.469Z,49.62
2023-04-07T13:17:51.341Z,49.61
2023-04-07T13:19:52.927Z,48.82
2023-04-07T13:21:54.900Z,48.15
2023-04-07T13:23:56.629Z,48.94
2023-04-07T13:25:58.311Z,49.11
2023-04-07T13:27:59.829Z,44.40
2023-04-07T13:30:01.673Z,43.57
2023-04-07T13:32:07.094Z,47.17
2023-04-07T13:34:08.624Z,39.61
2023-04-07T13:36:10.349Z,45.72
2023-04-07T13:38:11.961Z,45.87
2023-04-07T13:40:13.472Z,46.71
2023-04-07T13:42:18.050Z,45.34
2023-04-07T13:44:19.541Z,47.47
2023-04-07T13:46:28.465Z,49.29
2023-04-07T13:48:30.546Z,47.36
2023-04-07T13:50:31.990Z,50.29
2023-04-07T13:52:35.321Z,49.29
2023-04-07T13:54:38.142Z,49.19
2023-04-07T13:56:40.376Z,47.38
2023-04-07T13:58:41.935Z,48.44
2023-04-07T14:00:43.452Z,50.98
2023-04-07T14:02:45.969Z,48.50
2023-04-07T14:04:47.589Z,48.90
2023-04-07T14:06:49.040Z,46.79
2023-04-07T14:08:51.393Z,44.47
2023-04-07T14:10:53.050Z,49.38
2023-04-07T14:12:54.500Z,49.16
2023-04-07T14:14:56.577Z,45.74
2023-04-07T14:16:58.194Z,49.05
2023-04-07T14:18:59.678Z,47.34
2023-04-07T14:21:03.217Z,47.67
2023-04-07T14:23:04.697Z,47.59
2023-04-07T14:25:06.720Z,45.81
2023-04-07T14:27:08.191Z,46.88
2023-04-07T14:29:09.714Z,47.46
2023-04-07T14:31:15.828Z,47.45
2023-04-07T14:33:17.450Z,47.46
2023-04-07T14:35:19.017Z,47.62
2023-04-07T14:37:24.593Z,46.24
2023-04-07T14:39:26.177Z,43.15
2023-04-07T14:41:28.213Z,48.44
2023-04-07T14:43:30.483Z,50.32
2023-04-07T14:45:32.757Z,45.18
2023-04-07T14:47:34.341Z,46.94
2023-04-07T14:49:35.871Z,47.55
2023-04-07T14:51:37.373Z,48.59
2023-04-07T14:53:40.290Z,48.75
2023-04-07T14:55:42.309Z,49.11
2023-04-07T14:57:43.835Z,49.87
2023-04-07T14:59:45.526Z,48.71
2023-04-07T15:01:47.092Z,47.11
2023-04-07T15:03:49.036Z,46.71
2023-04-07T15:05:51.010Z,46.44
2023-04-07T15:07:52.562Z,45.76
2023-04-07T15:09:54.084Z,45.75
2023-04-07T15:11:56.323Z,49.04
2023-04-07T15:13:58.028Z,47.54
2023-04-07T15:16:13.234Z,46.74
2023-04-07T15:18:14.797Z,49.37
2023-04-07T15:20:16.328Z,49.65
2023-04-07T15:22:17.783Z,51.17
2023-04-07T15:24:21.305Z,51.63
2023-04-07T15:26:22.964Z,51.17
2023-04-07T15:28:24.975Z,52.40
2023-04-07T15:30:26.422Z,53.03
2023-04-07T15:32:31.050Z,51.38
2023-04-07T15:34:32.604Z,51.88
2023-04-07T15:36:34.055Z,52.76
2023-04-07T15:38:36.286Z,51.53
2023-04-07T15:40:38.552Z,51.03
2023-04-07T15:42:41.808Z,50.15
2023-04-07T15:44:43.589Z,51.10
2023-04-07T15:46:45.481Z,51.42
2023-04-07T15:48:47.970Z,53.23
2023-04-07T15:50:49.517Z,52.25
2023-04-07T15:52:51.173Z,52.22
2023-04-07T15:54:52.749Z,52.35
2023-04-07T15:56:54.245Z,51.41
2023-04-07T15:58:55.930Z,52.31
2023-04-07T16:00:57.628Z,51.80
2023-04-07T16:02:59.414Z,51.79
2023-04-07T16:05:01.147Z,54.26
2023-04-07T16:07:02.611Z,52.47
2023-04-07T16:09:04.168Z,52.32
2023-04-07T16:11:05.755Z,52.48
2023-04-07T16:13:07.218Z,52.15
2023-04-07T16:15:11.135Z,51.87
2023-04-07T16:17:12.727Z,52.01
2023-04-07T16:19:14.417Z,53.18
2023-04-07T16:21:16.491Z,53.58
2023-04-07T16:23:18.092Z,52.96
2023-04-07T16:25:19.629Z,52.54
2023-04-07T16:27:21.143Z,53.05
2023-04-07T16:29:22.630Z,52.17
2023-04-07T16:31:24.140Z,53.31
2023-04-07T16:33:26.146Z,54.27
2023-04-07T16:35:27.852Z,56.23
2023-04-07T16:37:30.328Z,56.35
2023-04-07T16:39:31.875Z,55.83
2023-04-07T16:45:01.274Z,56.48
2023-04-07T16:47:03.490Z,56.90
2023-04-07T16:49:05.029Z,57.67
2023-04-07T16:51:06.574Z,57.78
2023-04-07T16:53:07.988Z,58.36
2023-04-07T16:55:09.728Z,58.86
2023-04-07T16:57:12.100Z,58.85
2023-04-07T16:59:14.078Z,59.42
2023-04-07T17:01:15.791Z,59.29
2023-04-07T17:03:17.499Z,59.13
2023-04-07T17:05:19.213Z,60.33
2023-04-07T17:07:20.732Z,60.54
2023-04-07T17:09:22.180Z,62.21
2023-04-07T17:11:23.580Z,62.19
2023-04-07T17:13:24.970Z,63.52
2023-04-07T17:15:26.503Z,62.63
2023-04-07T17:17:28.062Z,62.18
2023-04-07T17:19:29.582Z,62.77
2023-04-07T17:21:31.925Z,62.29
2023-04-07T17:23:33.398Z,64.29
2023-04-07T17:25:34.811Z,63.89
2023-04-07T17:27:36.342Z,64.85
2023-04-07T17:29:37.848Z,64.26
2023-04-07T17:31:39.372Z,64.11
2023-04-07T17:33:41.170Z,65.55
2023-04-07T17:35:43.853Z,65.42
2023-04-07T17:37:46.035Z,65.95
2023-04-07T17:39:47.532Z,65.99
2023-04-07T17:41:48.987Z,65.74
2023-04-07T17:43:50.518Z,65.99
2023-04-07T17:45:52.570Z,65.17
2023-04-07T17:47:54.847Z,65.64
2023-04-07T17:49:56.297Z,66.34
2023-04-07T17:51:57.719Z,67.24
2023-04-07T17:53:59.147Z,66.32
2023-04-07T17:56:00.881Z,66.64
2023-04-07T17:58:02.314Z,66.95
2023-04-07T18:00:05.774Z,66.60
2023-04-07T18:02:10.553Z,66.96
2023-04-07T18:04:13.053Z,66.78
2023-04-07T18:06:18.007Z,66.84
2023-04-07T18:08:19.627Z,66.97
2023-04-07T18:10:21.039Z,67.21
2023-04-07T18:12:22.895Z,67.20
2023-04-07T18:14:24.751Z,67.84
2023-04-07T18:16:26.265Z,67.44
2023-04-07T18:18:27.925Z,67.64
2023-04-07T18:20:29.527Z,68.00
2023-04-07T18:22:31.592Z,68.42
2023-04-07T18:24:33.863Z,69.19
2023-04-07T18:26:36.673Z,68.86
2023-04-07T18:28:38.173Z,69.65
2023-04-07T18:30:39.647Z,69.91
2023-04-07T18:32:41.428Z,69.26
2023-04-07T18:34:42.961Z,69.97
2023-04-07T18:36:44.438Z,70.29
2023-04-07T18:38:45.944Z,70.15
2023-04-07T18:40:47.365Z,70.49
2023-04-07T18:42:48.819Z,70.55
2023-04-07T18:44:50.283Z,70.90
2023-04-07T18:46:51.954Z,71.29
2023-04-07T18:48:53.767Z,70.95
2023-04-07T18:50:56.467Z,71.17
2023-04-07T18:52:58.722Z,71.38
2023-04-07T18:55:00.308Z,71.77
2023-04-07T18:57:02.549Z,71.74
2023-04-07T18:59:04.246Z,72.13
2023-04-07T19:01:06.102Z,72.81
2023-04-07T19:03:08.110Z,72.17
2023-04-07T19:05:11.663Z,72.36
2023-04-07T19:07:13.084Z,73.02
2023-04-07T19:09:14.509Z,72.55
2023-04-07T19:11:16.268Z,73.17
2023-04-07T19:13:18.354Z,73.34
2023-04-07T19:15:19.943Z,73.59
2023-04-07T19:17:21.723Z,73.66
2023-04-07T19:19:23.214Z,73.93
2023-04-07T19:21:24.663Z,73.28
2023-04-07T19:23:26.181Z,73.83
2023-04-07T19:25:27.678Z,73.58
2023-04-07T19:27:29.677Z,74.22
2023-04-07T19:29:31.307Z,74.00
2023-04-07T19:31:32.809Z,74.42
2023-04-07T19:33:35.169Z,73.75
2023-04-07T19:35:39.005Z,74.53
2023-04-07T19:37:40.962Z,74.19
2023-04-07T19:39:46.955Z,73.76
2023-04-07T19:41:53.770Z,74.85
2023-04-07T19:43:55.306Z,74.08
2023-04-07T19:45:57.550Z,74.31
2023-04-07T19:48:00.135Z,74.39
2023-04-07T19:50:01.650Z,74.36
2023-04-07T19:52:03.354Z,75.13
2023-04-07T19:54:04.791Z,75.15
2023-04-07T19:56:06.254Z,76.04
2023-04-07T19:58:07.738Z,75.53
2023-04-07T20:00:10.316Z,75.67
2023-04-07T20:02:11.900Z,75.65
2023-04-07T20:04:13.431Z,76.28
2023-04-07T20:06:15.304Z,76.36
2023-04-07T20:08:16.839Z,75.48
2023-04-07T20:10:18.340Z,76.47
2023-04-07T20:12:19.777Z,76.79
2023-04-07T20:14:21.183Z,76.17
2023-04-07T20:16:22.818Z,75.89
2023-04-07T20:18:24.275Z,76.35
2023-04-07T20:20:26.033Z,76.62
2023-04-07T20:22:27.456Z,76.71
2023-04-07T20:24:28.893Z,76.76
2023-04-07T20:26:30.841Z,76.71
2023-04-07T20:28:32.296Z,77.43
2023-04-07T20:30:33.792Z,77.62
2023-04-07T20:32:35.337Z,77.12
2023-04-07T20:34:36.878Z,77.55
2023-04-07T20:36:38.279Z,77.54
2023-04-07T20:38:43.634Z,77.99
2023-04-07T20:40:45.100Z,77.89
2023-04-07T20:42:46.699Z,78.12
2023-04-07T20:44:49.074Z,77.50
2023-04-07T20:46:51.377Z,77.50
2023-04-07T20:48:53.270Z,77.94
2023-04-07T20:50:54.974Z,78.47
2023-04-07T20:52:56.414Z,77.92
2023-04-07T20:54:58.322Z,77.63
2023-04-07T20:57:00.658Z,77.77
2023-04-07T20:59:02.074Z,78.58
2023-04-07T21:01:03.584Z,78.42
2023-04-07T21:03:05.223Z,78.84
2023-04-07T21:05:07.067Z,78.14
2023-04-07T21:07:08.479Z,78.80
2023-04-07T21:09:09.981Z,78.28
2023-04-07T21:11:11.402Z,78.92
2023-04-07T21:13:12.815Z,78.59
2023-04-07T21:15:14.789Z,78.39
2023-04-07T21:17:16.359Z,78.90
2023-04-07T21:19:17.776Z,78.70
2023-04-07T21:21:19.331Z,78.99
2023-04-07T21:23:20.802Z,79.11
2023-04-07T21:25:22.260Z,78.67
2023-04-07T21:27:23.752Z,79.01
2023-04-07T21:29:29.919Z,79.01
2023-04-07T21:31:32.370Z,79.17
2023-04-07T21:33:34.079Z,79.03
2023-04-07T21:35:35.556Z,79.19
2023-04-07T21:37:36.997Z,79.22
2023-04-07T21:39:38.429Z,79.02
2023-04-07T21:41:39.880Z,78.98
2023-04-07T21:43:41.636Z,79.17
2023-04-07T21:45:43.458Z,78.92
2023-04-07T21:47:45.002Z,79.05
2023-04-07T21:49:46.519Z,79.03
2023-04-07T21:51:49.146Z,79.41
2023-04-07T21:53:50.566Z,79.30
2023-04-07T21:55:52.493Z,79.03
2023-04-07T21:57:54.347Z,79.32
2023-04-07T21:59:55.922Z,79.29
2023-04-07T22:01:57.900Z,78.58
2023-04-07T22:04:00.128Z,78.53
2023-04-07T22:06:01.812Z,78.99
2023-04-07T22:08:03.311Z,79.37
2023-04-07T22:10:05.171Z,78.91
2023-04-07T22:12:06.730Z,78.75
2023-04-07T22:14:08.134Z,78.94
2023-04-07T22:16:11.795Z,79.00
2023-04-07T22:18:13.684Z,78.81
2023-04-07T22:20:15.919Z,79.15
2023-04-07T22:22:17.450Z,78.74
2023-04-07T22:24:18.951Z,79.03
2023-04-07T22:26:20.706Z,78.34
2023-04-07T22:28:22.178Z,78.67
2023-04-07T22:30:24.567Z,78.22
2023-04-07T22:32:26.238Z,77.77
2023-04-07T22:34:27.698Z,77.81
2023-04-07T22:36:29.180Z,77.83
2023-04-07T22:38:30.889Z,77.50
2023-04-07T22:40:32.379Z,78.01
2023-04-07T22:42:33.855Z,77.94
2023-04-07T22:44:35.488Z,77.57
2023-04-07T22:46:36.986Z,78.00
2023-04-07T22:48:38.405Z,77.89
2023-04-07T22:50:39.918Z,77.52
2023-04-07T22:52:42.109Z,77.69
2023-04-07T22:54:43.547Z,77.61
2023-04-07T22:56:45.272Z,77.77
2023-04-07T22:58:46.751Z,77.43
2023-04-07T23:00:48.228Z,77.70
2023-04-07T23:02:49.842Z,76.96
2023-04-07T23:04:51.508Z,77.03
2023-04-07T23:06:53.127Z,77.17
2023-04-07T23:08:55.725Z,77.34
2023-04-07T23:10:57.182Z,76.98
2023-04-07T23:12:58.721Z,76.94
2023-04-07T23:15:00.335Z,76.43
2023-04-07T23:17:01.775Z,77.08
2023-04-07T23:19:03.255Z,76.96
2023-04-07T23:21:04.891Z,76.47
2023-04-07T23:23:06.541Z,76.30
2023-04-07T23:25:08.467Z,76.80
2023-04-07T23:27:10.159Z,76.81
2023-04-07T23:29:11.941Z,76.84
2023-04-07T23:31:13.511Z,76.19
2023-04-07T23:33:15.123Z,76.80
2023-04-07T23:35:16.580Z,76.45
2023-04-07T23:37:18.086Z,76.50
2023-04-07T23:39:19.620Z,76.37
2023-04-07T23:41:21.138Z,76.53
2023-04-07T23:43:22.586Z,76.26
2023-04-07T23:45:24.150Z,76.40
2023-04-07T23:47:25.830Z,76.50
2023-04-07T23:49:29.148Z,76.22
2023-04-07T23:51:30.660Z,76.31
2023-04-07T23:53:32.086Z,75.80
2023-04-07T23:55:33.549Z,76.58
2023-04-07T23:57:34.987Z,75.80
2023-04-07T23:59:36.461Z,76.32
